Time;durP1;ratioP1;P1;durP2;ratioP2;P2;SDS_P1;SDS_P2;PMS_P1;PMS_P2;Temp;Humidity;BMP_temperature;BMP_pressure;BME280_temperature;BME280_humidity;BME280_pressure;Samples;Min_cycle;Max_cycle;Signal;HPM_P1;HPM_P2
2023/01/23 00:02:25;;;;;;;22.63;10.07;;;;;;;1.17;100.00;101471.75;5159931;27;20080;-65
2023/01/23 00:04:52;;;;;;;30.90;11.88;;;;;;;1.04;100.00;101471.25;5159774;27;20145;-63
2023/01/23 00:07:18;;;;;;;25.73;11.02;;;;;;;0.86;100.00;101469.59;5159832;27;20368;-65
2023/01/23 00:09:45;;;;;;;23.25;10.10;;;;;;;0.70;100.00;101465.81;5159767;27;20050;-63
2023/01/23 00:12:11;;;;;;;24.15;9.73;;;;;;;0.87;100.00;101469.34;5159629;27;20051;-65
2023/01/23 00:14:37;;;;;;;23.95;10.15;;;;;;;1.04;100.00;101472.06;5159914;27;20055;-63
2023/01/23 00:17:03;;;;;;;28.63;10.32;;;;;;;0.79;100.00;101480.53;5159700;27;20055;-65
2023/01/23 00:19:29;;;;;;;24.27;8.68;;;;;;;1.04;100.00;101477.47;5159522;27;20058;-64
2023/01/23 00:21:59;;;;;;;28.80;10.25;;;;;;;0.93;100.00;101478.34;5159488;27;20061;-63
2023/01/23 00:24:25;;;;;;;25.73;10.75;;;;;;;0.54;100.00;101480.91;5159809;27;20047;-65
2023/01/23 00:26:52;;;;;;;21.63;9.57;;;;;;;0.58;100.00;101471.25;5159285;27;20408;-65
2023/01/23 00:29:18;;;;;;;24.00;10.50;;;;;;;0.90;100.00;101478.81;5159759;27;20047;-63
2023/01/23 00:31:44;;;;;;;24.63;10.50;;;;;;;0.60;100.00;101463.75;5159497;27;20080;-64
2023/01/23 00:34:12;;;;;;;25.10;10.65;;;;;;;0.42;100.00;101459.34;5159493;27;20327;-63
2023/01/23 00:36:41;;;;;;;22.90;10.32;;;;;;;0.28;100.00;101455.31;5159530;27;20065;-63
2023/01/23 00:39:11;;;;;;;23.25;10.63;;;;;;;0.74;100.00;101441.84;5159380;27;20050;-62
2023/01/23 00:41:38;;;;;;;27.85;11.05;;;;;;;0.51;100.00;101443.59;5159522;27;20047;-63
2023/01/23 00:44:04;;;;;;;26.88;9.63;;;;;;;0.55;100.00;101444.75;5159106;27;20168;-65
2023/01/23 00:46:30;;;;;;;27.77;10.85;;;;;;;0.32;100.00;101437.56;5159357;27;20115;-62
2023/01/23 00:48:56;;;;;;;27.27;10.13;;;;;;;0.57;100.00;101431.03;5159030;27;20050;-65
2023/01/23 00:51:23;;;;;;;29.60;11.32;;;;;;;0.45;100.00;101417.56;5159400;27;20054;-62
2023/01/23 00:53:49;;;;;;;20.98;9.82;;;;;;;0.60;100.00;101414.31;5158972;27;20118;-63
2023/01/23 00:56:17;;;;;;;26.80;10.82;;;;;;;0.41;100.00;101405.63;5159289;27;20055;-63
2023/01/23 00:58:43;;;;;;;28.95;10.82;;;;;;;0.53;100.00;101400.16;5158831;27;20051;-64
2023/01/23 01:01:09;;;;;;;33.60;11.13;;;;;;;0.42;100.00;101401.88;5158786;27;20055;-62
2023/01/23 01:03:36;;;;;;;29.33;10.73;;;;;;;0.44;100.00;101394.38;5158846;27;20396;-63
2023/01/23 01:06:03;;;;;;;25.38;9.65;;;;;;;0.45;100.00;101402.19;5158843;27;20051;-63
2023/01/23 01:08:30;;;;;;;24.25;10.40;;;;;;;0.63;100.00;101398.47;5158933;27;20046;-65
2023/01/23 01:10:56;;;;;;;30.10;10.30;;;;;;;0.74;100.00;101395.94;5158678;27;20118;-64
2023/01/23 01:13:23;;;;;;;19.00;8.73;;;;;;;0.47;100.00;101410.88;5159037;27;20055;-62
2023/01/23 01:15:51;;;;;;;24.92;9.25;;;;;;;0.39;100.00;101405.88;5158678;27;20061;-62
2023/01/23 01:18:18;;;;;;;23.15;9.38;;;;;;;0.48;100.00;101390.09;5158907;27;20061;-63
2023/01/23 01:20:45;;;;;;;30.45;12.27;;;;;;;0.32;100.00;101402.50;5158496;27;20046;-64
2023/01/23 01:23:11;;;;;;;21.83;8.88;;;;;;;0.34;100.00;101391.47;5158879;27;20047;-65
2023/01/23 01:25:37;;;;;;;32.83;10.32;;;;;;;0.73;100.00;101381.59;5158290;27;20111;-64
2023/01/23 01:28:04;;;;;;;28.10;10.45;;;;;;;0.37;100.00;101399.91;5158440;27;20046;-63
2023/01/23 01:30:32;;;;;;;28.73;10.25;;;;;;;0.39;100.00;101388.84;5158695;27;20060;-64
2023/01/23 01:32:58;;;;;;;25.38;9.70;;;;;;;0.39;100.00;101392.38;5158478;27;20057;-62
2023/01/23 01:35:24;;;;;;;25.02;9.73;;;;;;;0.44;100.00;101391.66;5158623;27;20046;-65
2023/01/23 01:37:51;;;;;;;21.55;8.57;;;;;;;0.64;100.00;101397.41;5158415;27;20050;-65
2023/01/23 01:40:20;;;;;;;26.45;8.63;;;;;;;0.28;100.00;101406.75;5158427;27;20047;-63
2023/01/23 01:42:49;;;;;;;22.50;8.90;;;;;;;0.27;100.00;101396.19;5158265;27;20384;-63
2023/01/23 01:45:53;;;;;;;22.80;10.02;;;;;;;0.89;100.00;101385.38;5158615;27;20061;-66
2023/01/23 01:48:23;;;;;;;25.42;8.63;;;;;;;0.67;100.00;101409.63;5158388;27;20050;-65
2023/01/23 01:50:50;;;;;;;24.25;9.48;;;;;;;0.59;100.00;101420.78;5158246;27;20378;-65
2023/01/23 01:53:17;;;;;;;24.75;8.55;;;;;;;0.60;100.00;101422.41;5158338;27;20050;-64
2023/01/23 01:55:43;;;;;;;29.13;8.23;;;;;;;0.66;100.00;101426.84;5158129;27;20050;-62
2023/01/23 01:58:10;;;;;;;26.30;8.63;;;;;;;0.25;100.00;101425.28;5158363;27;20068;-65
2023/01/23 02:00:36;;;;;;;27.10;8.63;;;;;;;0.59;100.00;101413.50;5158033;27;20042;-64
2023/01/23 02:03:03;;;;;;;21.08;8.82;;;;;;;0.56;100.00;101416.69;5158237;27;20054;-63
2023/01/23 02:05:35;;;;;;;19.75;7.35;;;;;;;0.52;100.00;101417.44;5157969;27;20043;-62
2023/01/23 02:08:06;;;;;;;21.95;8.93;;;;;;;0.20;100.00;101416.06;5158308;27;20055;-63
2023/01/23 02:10:33;;;;;;;24.35;8.75;;;;;;;0.69;100.00;101404.75;5157738;27;20222;-63
2023/01/23 02:13:23;;;;;;;20.77;8.88;;;;;;;0.51;100.00;101410.41;5157728;27;20141;-64
2023/01/23 02:15:51;;;;;;;21.70;9.43;;;;;;;0.52;100.00;101404.75;5158176;27;20311;-62
2023/01/23 02:18:18;;;;;;;27.08;8.88;;;;;;;0.59;100.00;101391.09;5157817;27;20043;-64
2023/01/23 02:20:46;;;;;;;24.48;10.05;;;;;;;0.01;100.00;101413.78;5157921;27;20398;-63
2023/01/23 02:23:23;;;;;;;18.95;7.03;;;;;;;0.43;100.00;101396.25;5160608;27;20066;-63
2023/01/23 02:25:58;;;;;;;27.02;9.00;;;;;;;0.25;100.00;101403.72;5161193;27;20047;-65
2023/01/23 02:28:36;;;;;;;26.27;10.07;;;;;;;0.13;100.00;101396.47;5161328;27;20047;-65
2023/01/23 02:31:03;;;;;;;22.15;8.85;;;;;;;0.44;100.00;101388.97;5161251;27;20053;-65
2023/01/23 02:33:48;;;;;;;22.20;8.15;;;;;;;0.63;100.00;101374.19;5161214;27;20114;-64
2023/01/23 02:36:16;;;;;;;17.85;7.20;;;;;;;0.69;100.00;101383.97;5161329;27;20050;-63
2023/01/23 02:38:50;;;;;;;21.25;8.38;;;;;;;0.62;100.00;101387.91;5161383;27;20057;-65
2023/01/23 02:41:19;;;;;;;;;;;;;;;0.20;100.00;101407.13;5161499;27;20057;-62
2023/01/23 02:43:48;;;;;;;21.35;7.40;;;;;;;0.30;100.00;101399.25;5161474;27;19945;-65
2023/01/23 02:46:14;;;;;;;19.60;8.07;;;;;;;0.42;100.00;101397.28;5160877;27;20050;-65
2023/01/23 02:48:42;;;;;;;15.32;7.13;;;;;;;0.47;100.00;101416.28;5161449;27;20050;-64
2023/01/23 02:51:09;;;;;;;12.60;6.57;;;;;;;0.60;100.00;101417.88;5160912;27;20103;-63
2023/01/23 02:53:35;;;;;;;17.83;8.13;;;;;;;0.41;100.00;101433.44;5161137;27;20119;-63
2023/01/23 02:56:01;;;;;;;17.48;7.45;;;;;;;0.69;100.00;101440.69;5160950;27;20061;-65
2023/01/23 03:01:12;;;;;;;15.63;7.72;;;;;;;0.55;100.00;101465.53;5161123;27;20050;-62
2023/01/23 03:03:41;;;;;;;16.48;7.93;;;;;;;0.41;100.00;101465.81;5160827;27;20054;-65
2023/01/23 03:06:07;;;;;;;15.55;8.05;;;;;;;0.81;100.00;101464.94;5161049;27;20054;-65
2023/01/23 03:08:35;;;;;;;17.30;8.35;;;;;;;0.43;100.00;101471.81;5160657;27;20411;-64
2023/01/23 03:11:03;;;;;;;18.63;7.95;;;;;;;0.48;100.00;101465.69;5161036;27;20086;-63
2023/01/23 03:13:30;;;;;;;25.02;8.70;;;;;;;0.14;100.00;101472.84;5160481;27;20057;-65
2023/01/23 03:15:57;;;;;;;19.02;9.68;;;;;;;0.12;100.00;101458.75;5160786;27;20323;-63
2023/01/23 03:18:23;;;;;;;19.90;9.05;;;;;;;0.37;100.00;101456.56;5160426;27;20086;-63
2023/01/23 03:20:49;;;;;;;23.70;9.10;;;;;;;0.34;100.00;101459.75;5160454;27;20106;-65
2023/01/23 03:23:17;;;;;;;25.65;9.35;;;;;;;0.32;100.00;101442.16;5160729;27;20050;-63
2023/01/23 03:25:43;;;;;;;22.83;8.70;;;;;;;0.47;100.00;101451.38;5160566;27;20074;-64
2023/01/23 03:30:11;;;;;;;18.80;8.32;;;;;;;0.44;100.00;101451.84;5160734;27;20339;-64
2023/01/23 03:30:56;;;;;;;20.60;9.15;;;;;;;0.58;100.00;101459.66;5160106;27;20385;-65
2023/01/23 03:33:23;;;;;;;21.67;9.65;;;;;;;0.61;100.00;101456.47;5159235;27;20062;-63
2023/01/23 03:35:49;;;;;;;19.33;9.88;;;;;;;0.63;100.00;101467.81;5160203;27;20043;-64
2023/01/23 03:38:18;;;;;;;17.90;8.57;;;;;;;0.74;100.00;101471.56;5160594;27;20061;-65
2023/01/23 03:43:31;;;;;;;19.73;9.70;;;;;;;0.68;100.00;101482.25;5160183;27;20054;-63
2023/01/23 03:45:58;;;;;;;20.38;9.88;;;;;;;0.35;100.00;101496.47;5160102;27;20417;-63
2023/01/23 03:48:24;;;;;;;29.17;10.10;;;;;;;0.36;100.00;101486.47;5160138;27;20327;-66
2023/01/23 03:50:50;;;;;;;23.83;9.18;;;;;;;0.19;100.00;101478.31;5160268;27;20064;-63
2023/01/23 03:53:16;;;;;;;24.35;9.18;;;;;;;0.25;100.00;101453.09;5160024;27;20134;-64
2023/01/23 03:55:45;;;;;;;21.55;9.82;;;;;;;0.08;100.00;101444.94;5160431;27;20050;-63
2023/01/23 03:58:11;;;;;;;24.20;10.77;;;;;;;0.46;100.00;101432.69;5159795;27;20058;-64
2023/01/23 04:00:37;;;;;;;21.20;9.93;;;;;;;0.29;100.00;101438.06;5159793;27;20057;-64
2023/01/23 04:03:04;;;;;;;26.67;8.60;;;;;;;0.69;100.00;101435.28;5159793;27;20050;-63
2023/01/23 04:05:30;;;;;;;22.70;8.60;;;;;;;0.65;100.00;101453.03;5159953;27;20051;-64
2023/01/23 04:07:56;;;;;;;19.83;8.75;;;;;;;0.28;100.00;101474.19;5159907;27;20139;-62
2023/01/23 04:10:23;;;;;;;27.30;10.20;;;;;;;0.41;100.00;101460.44;5159651;27;20107;-64
2023/01/23 04:12:49;;;;;;;21.48;9.05;;;;;;;0.46;100.00;101471.28;5159761;27;20053;-62
2023/01/23 04:15:15;;;;;;;27.40;9.82;;;;;;;0.32;100.00;101464.56;5159541;27;20042;-65
2023/01/23 04:17:42;;;;;;;26.48;10.70;;;;;;;0.49;100.00;101472.69;5159671;27;20790;-62
2023/01/23 04:20:10;;;;;;;23.65;9.18;;;;;;;0.55;100.00;101474.44;5159438;27;20057;-65
2023/01/23 04:22:36;;;;;;;25.55;10.65;;;;;;;0.43;100.00;101476.34;5159805;27;20293;-62
2023/01/23 04:25:03;;;;;;;26.67;9.88;;;;;;;0.22;100.00;101473.28;5159389;27;20053;-65
2023/01/23 04:27:30;;;;;;;27.70;10.68;;;;;;;0.36;100.00;101463.00;5159692;27;20042;-65
2023/01/23 04:29:57;;;;;;;28.50;11.02;;;;;;;0.32;100.00;101464.56;5159310;27;20412;-65
2023/01/23 04:32:23;;;;;;;27.20;9.75;;;;;;;0.29;100.00;101467.72;5159109;27;20051;-64
2023/01/23 04:34:49;;;;;;;23.98;10.88;;;;;;;0.29;100.00;101466.91;5159238;27;20053;-63
2023/01/23 04:37:17;;;;;;;24.83;9.70;;;;;;;0.03;100.00;101454.78;5159182;27;20047;-64
2023/01/23 04:39:43;;;;;;;27.92;10.70;;;;;;;0.12;100.00;101445.28;5159190;27;20355;-63
2023/01/23 04:42:10;;;;;;;26.10;10.15;;;;;;;0.35;100.00;101442.50;5159219;27;20455;-62
2023/01/23 04:44:36;;;;;;;25.52;10.63;;;;;;;0.56;100.00;101446.38;5158776;27;20421;-63
2023/01/23 04:47:02;;;;;;;21.88;9.48;;;;;;;0.38;100.00;101466.31;5158991;27;20427;-65
2023/01/23 04:49:28;;;;;;;28.85;11.10;;;;;;;0.29;100.00;101465.03;5159414;27;20055;-63
2023/01/23 04:51:55;;;;;;;26.45;11.18;;;;;;;0.25;100.00;101471.16;5158913;27;20047;-65
2023/01/23 04:54:22;;;;;;;30.35;10.10;;;;;;;0.34;100.00;101459.75;5159175;27;20057;-64
2023/01/23 04:56:48;;;;;;;23.95;9.50;;;;;;;0.39;100.00;101477.91;5158860;27;20339;-62
2023/01/23 04:59:15;;;;;;;21.83;9.98;;;;;;;0.51;100.00;101480.56;5158702;27;20046;-68
2023/01/23 05:01:42;;;;;;;32.80;10.68;;;;;;;0.46;100.00;101505.56;5158625;27;20086;-66
2023/01/23 05:04:08;;;;;;;25.50;10.13;;;;;;;0.43;100.00;101497.94;5158694;27;20046;-64
2023/01/23 05:06:34;;;;;;;24.10;8.85;;;;;;;0.61;100.00;101505.06;5158780;27;20158;-65
2023/01/23 05:09:01;;;;;;;22.85;9.35;;;;;;;0.57;100.00;101520.09;5158740;27;20042;-65
2023/01/23 05:11:28;;;;;;;20.75;9.05;;;;;;;0.40;100.00;101537.06;5158394;27;20061;-64
2023/01/23 05:13:54;;;;;;;26.52;9.40;;;;;;;0.29;100.00;101520.88;5158660;27;20076;-63
2023/01/23 05:16:20;;;;;;;24.73;9.90;;;;;;;0.26;100.00;101524.88;5158732;27;20046;-63
2023/01/23 05:18:46;;;;;;;21.42;9.13;;;;;;;0.37;100.00;101521.34;5158571;27;20404;-66
2023/01/23 05:21:12;;;;;;;24.40;9.40;;;;;;;0.16;100.00;101522.78;5158673;27;20058;-62
2023/01/23 05:23:39;;;;;;;28.25;11.15;;;;;;;0.21;100.00;101522.06;5158267;27;20053;-64
2023/01/23 05:26:06;;;;;;;27.30;10.68;;;;;;;0.65;100.00;101509.72;5158682;27;20046;-64
2023/01/23 05:28:33;;;;;;;22.20;9.70;;;;;;;0.65;100.00;101541.31;5158103;27;20636;-65
2023/01/23 05:30:59;;;;;;;24.88;9.50;;;;;;;0.67;100.00;101544.59;5158044;27;20050;-63
2023/01/23 05:33:25;;;;;;;28.92;9.77;;;;;;;0.30;100.00;101560.28;5158353;27;20123;-64
2023/01/23 05:35:51;;;;;;;23.17;9.85;;;;;;;0.50;100.00;101562.59;5158448;27;20464;-64
2023/01/23 05:38:18;;;;;;;21.00;9.07;;;;;;;0.66;100.00;101564.53;5158472;27;20058;-64
2023/01/23 05:40:44;;;;;;;25.85;10.00;;;;;;;0.67;100.00;101577.81;5158177;27;20056;-64
2023/01/23 05:43:13;;;;;;;26.00;10.48;;;;;;;0.34;100.00;101578.47;5158253;27;20060;-64
2023/01/23 05:45:40;;;;;;;19.50;9.07;;;;;;;0.52;100.00;101568.56;5158041;27;20057;-65
2023/01/23 05:48:06;;;;;;;25.05;10.32;;;;;;;0.37;100.00;101569.91;5158316;27;20050;-64
2023/01/23 05:50:32;;;;;;;20.35;10.10;;;;;;;0.46;100.00;101570.34;5157633;27;20054;-68
2023/01/23 05:52:59;;;;;;;25.02;9.15;;;;;;;0.60;100.00;101563.63;5158121;27;20046;-65
2023/01/23 05:55:25;;;;;;;25.20;9.02;;;;;;;0.46;100.00;101579.25;5157642;27;20130;-65
2023/01/23 05:57:51;;;;;;;25.52;9.57;;;;;;;0.62;100.00;101590.38;5157110;27;20480;-69
2023/01/23 06:00:18;;;;;;;24.92;10.68;;;;;;;0.68;100.00;101597.53;5158072;27;20167;-73
2023/01/23 06:02:46;;;;;;;23.42;9.80;;;;;;;0.40;100.00;101607.22;5157753;27;20121;-67
2023/01/23 06:05:12;;;;;;;26.95;9.13;;;;;;;0.22;100.00;101610.03;5158077;27;20046;-67
2023/01/23 06:07:39;;;;;;;28.50;9.55;;;;;;;0.42;100.00;101601.56;5157541;27;20050;-67
2023/01/23 06:10:07;;;;;;;27.48;9.05;;;;;;;0.67;100.00;101602.09;5157988;27;20080;-74
2023/01/23 06:12:33;;;;;;;26.85;9.02;;;;;;;0.67;100.00;101614.78;5157588;27;20055;-69
2023/01/23 06:14:59;;;;;;;31.00;9.40;;;;;;;0.37;100.00;101623.88;5157891;27;20089;-67
2023/01/23 06:17:25;;;;;;;24.80;9.60;;;;;;;0.53;100.00;101621.50;5157454;27;20050;-66
2023/01/23 06:19:52;;;;;;;22.20;9.13;;;;;;;0.40;100.00;101627.97;5157917;27;20054;-68
2023/01/23 06:22:18;;;;;;;26.23;9.48;;;;;;;0.44;100.00;101623.75;5157605;27;20046;-68
2023/01/23 06:24:45;;;;;;;30.35;10.50;;;;;;;0.49;100.00;101628.44;5157997;27;20316;-74
2023/01/23 06:27:11;;;;;;;23.15;9.20;;;;;;;0.05;100.00;101628.00;5157224;27;20412;-68
2023/01/23 06:29:37;;;;;;;21.98;9.05;;;;;;;0.40;100.00;101609.91;5157474;27;20435;-73
2023/01/23 06:32:04;;;;;;;31.80;10.18;;;;;;;0.31;100.00;101610.50;5157291;27;20058;-70
2023/01/23 06:34:31;;;;;;;28.90;9.85;;;;;;;0.18;100.00;101608.88;5157493;27;20051;-70
2023/01/23 06:36:57;;;;;;;21.02;9.60;;;;;;;0.07;100.00;101593.50;5157406;27;20046;-69
2023/01/23 06:39:24;;;;;;;26.42;10.95;;;;;;;0.03;100.00;101595.84;5157295;27;20059;-70
2023/01/23 06:41:50;;;;;;;24.75;10.02;;;;;;;0.27;100.00;101577.78;5157454;27;20129;-69
2023/01/23 06:44:16;;;;;;;25.73;8.73;;;;;;;-0.07;100.00;101577.59;5157121;27;20404;-71
2023/01/23 06:46:42;;;;;;;23.58;10.30;;;;;;;-0.08;100.00;101565.13;5157426;27;20054;-70
2023/01/23 06:49:09;;;;;;;25.30;9.13;;;;;;;0.42;100.00;101559.19;5157116;27;20411;-70
2023/01/23 06:51:36;;;;;;;27.63;10.27;;;;;;;0.33;100.00;101566.03;5157529;27;20043;-68
2023/01/23 06:54:03;;;;;;;26.92;10.32;;;;;;;0.42;100.00;101574.56;5156994;27;20054;-72
2023/01/23 06:56:30;;;;;;;30.45;11.75;;;;;;;0.40;100.00;101576.69;5157261;27;20070;-73
2023/01/23 06:58:56;;;;;;;24.85;11.05;;;;;;;0.21;100.00;101579.53;5157272;27;20046;-67
2023/01/23 07:01:22;;;;;;;27.25;10.90;;;;;;;0.22;100.00;101575.78;5157187;27;20061;-73
2023/01/23 07:03:49;;;;;;;25.38;10.23;;;;;;;0.14;100.00;101580.75;5156825;27;20404;-73
2023/01/23 07:06:16;;;;;;;34.92;11.93;;;;;;;0.22;100.00;101572.28;5156938;27;20155;-73
2023/01/23 07:08:43;;;;;;;31.55;11.65;;;;;;;0.30;100.00;101571.91;5158760;27;20047;-73
2023/01/23 07:11:10;;;;;;;26.90;10.60;;;;;;;0.29;100.00;101582.94;5160389;27;20473;-68
2023/01/23 07:13:36;;;;;;;29.88;11.35;;;;;;;0.63;100.00;101584.75;5160341;27;20451;-68
2023/01/23 07:16:03;;;;;;;27.55;10.93;;;;;;;0.42;100.00;101598.88;5160411;27;20424;-71
2023/01/23 07:18:31;;;;;;;34.22;11.73;;;;;;;0.38;100.00;101598.53;5160495;27;20400;-68
2023/01/23 07:20:58;;;;;;;25.05;10.75;;;;;;;0.52;100.00;101599.06;5160272;27;20050;-69
2023/01/23 07:23:24;;;;;;;26.98;11.48;;;;;;;0.61;100.00;101607.63;5160275;27;20057;-68
2023/01/23 07:25:50;;;;;;;29.10;10.68;;;;;;;0.65;100.00;101623.09;5160541;27;20106;-72
2023/01/23 07:28:17;;;;;;;27.15;10.82;;;;;;;0.50;100.00;101635.44;5160428;27;20046;-68
2023/01/23 07:30:43;;;;;;;28.77;11.77;;;;;;;0.55;100.00;101628.28;5160350;27;20204;-73
2023/01/23 07:33:11;;;;;;;31.05;10.27;;;;;;;0.67;100.00;101639.91;5160132;27;20047;-67
2023/01/23 07:35:38;;;;;;;23.92;10.70;;;;;;;0.65;100.00;101646.59;5159873;27;20055;-67
2023/01/23 07:38:04;;;;;;;27.90;10.48;;;;;;;0.50;100.00;101649.78;5160105;27;20061;-71
2023/01/23 07:40:30;;;;;;;30.48;11.02;;;;;;;0.28;100.00;101649.56;5160276;27;20404;-69
2023/01/23 07:42:56;;;;;;;35.45;12.25;;;;;;;0.12;100.00;101639.47;5159988;27;20051;-70
2023/01/23 07:45:23;;;;;;;30.40;10.10;;;;;;;0.32;100.00;101617.53;5160278;27;20054;-67
2023/01/23 07:47:50;;;;;;;29.33;11.02;;;;;;;0.47;100.00;101609.78;5159941;27;20047;-72
2023/01/23 07:50:16;;;;;;;27.70;11.15;;;;;;;0.37;100.00;101621.19;5162205;27;20043;-73
2023/01/23 07:52:43;;;;;;;26.08;11.05;;;;;;;0.49;100.00;101607.66;5160306;27;20106;-61
2023/01/23 07:55:09;;;;;;;29.90;10.57;;;;;;;0.55;100.00;101611.28;5159791;27;20359;-70
2023/01/23 07:57:35;;;;;;;26.50;11.52;;;;;;;0.58;100.00;101597.31;5159733;27;20068;-69
2023/01/23 08:00:02;;;;;;;27.60;11.43;;;;;;;0.72;100.00;101601.38;5159553;27;20046;-68
2023/01/23 08:02:29;;;;;;;32.92;11.93;;;;;;;0.72;100.00;101612.19;5159872;27;20050;-70
2023/01/23 08:04:55;;;;;;;27.50;10.50;;;;;;;0.53;100.00;101614.22;5159616;27;20046;-71
2023/01/23 08:07:22;;;;;;;24.45;9.98;;;;;;;0.61;100.00;101610.34;5159846;27;20055;-66
2023/01/23 08:09:48;;;;;;;25.45;10.40;;;;;;;0.51;100.00;101626.31;5159704;27;20412;-73
2023/01/23 08:12:15;;;;;;;21.80;9.38;;;;;;;0.72;100.00;101609.47;5159690;27;20400;-68
2023/01/23 08:14:41;;;;;;;23.08;10.65;;;;;;;0.77;100.00;101614.13;5159525;27;20133;-67
2023/01/23 08:17:07;;;;;;;30.13;10.18;;;;;;;0.91;100.00;101632.56;5159806;27;20360;-65
2023/01/23 08:19:34;;;;;;;28.88;10.57;;;;;;;0.80;100.00;101636.13;5158234;27;20051;-66
2023/01/23 08:22:00;;;;;;;21.75;9.02;;;;;;;0.80;100.00;101641.50;5159326;27;20397;-69
2023/01/23 08:24:26;;;;;;;25.33;9.57;;;;;;;0.82;100.00;101647.47;5159108;27;20056;-64
2023/01/23 08:26:53;;;;;;;28.52;10.38;;;;;;;0.85;100.00;101643.50;5159333;27;20331;-68
2023/01/23 08:29:19;;;;;;;29.13;10.23;;;;;;;1.04;100.00;101652.25;5159456;27;20106;-61
2023/01/23 08:31:45;;;;;;;26.48;9.57;;;;;;;1.00;100.00;101668.13;5159354;27;20047;-75
2023/01/23 08:34:12;;;;;;;25.58;11.30;;;;;;;1.17;100.00;101679.78;5159164;27;20061;-69
2023/01/23 08:36:38;;;;;;;20.38;9.05;;;;;;;0.94;100.00;101701.47;5159239;27;20054;-67
2023/01/23 08:39:05;;;;;;;26.05;10.15;;;;;;;0.77;100.00;101706.78;5159338;27;20047;-67
2023/01/23 08:41:31;;;;;;;21.52;9.25;;;;;;;0.91;100.00;101702.78;5159254;27;20046;-67
2023/01/23 08:44:00;;;;;;;24.35;10.27;;;;;;;0.98;100.00;101712.63;5159446;27;20368;-68
2023/01/23 08:46:26;;;;;;;21.88;9.50;;;;;;;0.97;100.00;101711.81;5158541;27;20486;-66
2023/01/23 08:48:53;;;;;;;23.17;8.95;;;;;;;1.05;100.00;101714.13;5159156;27;20051;-65
2023/01/23 08:51:19;;;;;;;24.98;10.25;;;;;;;1.14;100.00;101717.28;5159098;27;20315;-69
2023/01/23 08:53:46;;;;;;;19.15;8.77;;;;;;;0.80;100.00;101735.19;5158932;27;20327;-66
2023/01/23 08:56:15;;;;;;;24.27;8.55;;;;;;;0.77;100.00;101724.84;5158936;27;20047;-67
2023/01/23 08:58:42;;;;;;;23.48;9.45;;;;;;;0.87;100.00;101731.31;5158758;27;20514;-69
2023/01/23 09:01:11;;;;;;;23.67;9.70;;;;;;;0.96;100.00;101729.06;5158966;27;20312;-67
2023/01/23 09:03:37;;;;;;;27.77;9.80;;;;;;;0.94;100.00;101734.72;5158368;27;20054;-71
2023/01/23 09:06:04;;;;;;;20.95;9.50;;;;;;;1.09;100.00;101730.69;5158864;27;20042;-70
2023/01/23 09:08:31;;;;;;;22.35;9.95;;;;;;;1.12;100.00;101725.63;5158792;27;20065;-70
2023/01/23 09:11:00;;;;;;;20.33;9.05;;;;;;;1.36;100.00;101725.53;5158513;27;20057;-65
2023/01/23 09:13:26;;;;;;;27.73;8.82;;;;;;;1.38;100.00;101716.13;5158217;27;20091;-71
2023/01/23 09:15:53;;;;;;;19.52;8.95;;;;;;;1.44;100.00;101719.75;5158670;27;20066;-65
2023/01/23 09:18:21;;;;;;;21.27;9.63;;;;;;;1.56;100.00;101712.41;5158342;27;20061;-71
2023/01/23 09:20:48;;;;;;;23.95;8.52;;;;;;;1.53;100.00;101710.19;5158540;27;20054;-67
2023/01/23 09:23:14;;;;;;;20.23;8.65;;;;;;;1.45;100.00;101709.78;5158217;27;20042;-70
2023/01/23 09:25:41;;;;;;;18.35;9.25;;;;;;;1.27;100.00;101697.28;5158510;27;20050;-69
2023/01/23 09:28:08;;;;;;;17.48;8.27;;;;;;;1.30;100.00;101692.22;5158305;27;20327;-68
2023/01/23 09:30:34;;;;;;;18.90;9.20;;;;;;;1.33;100.00;101701.69;5158071;27;20047;-68
2023/01/23 09:33:00;;;;;;;20.90;8.35;;;;;;;1.37;100.00;101697.47;5158214;27;20082;-70
2023/01/23 09:35:26;;;;;;;17.65;8.45;;;;;;;1.50;100.00;101693.63;5158141;27;20107;-66
2023/01/23 09:37:59;;;;;;;18.83;8.32;;;;;;;1.30;100.00;101686.81;5158424;27;20055;-71
2023/01/23 09:40:27;;;;;;;18.50;8.73;;;;;;;1.13;100.00;101689.44;5157761;27;20380;-70
2023/01/23 09:42:55;;;;;;;15.40;7.20;;;;;;;1.02;100.00;101698.41;5157608;27;20047;-71
2023/01/23 09:45:26;;;;;;;18.25;8.88;;;;;;;1.35;100.00;101703.09;5157778;27;20056;-71
2023/01/23 09:48:00;;;;;;;18.67;9.27;;;;;;;1.27;100.00;101703.50;5157701;27;20051;-71
2023/01/23 09:50:30;;;;;;;17.02;8.25;;;;;;;1.09;100.00;101701.78;5157984;27;20074;-68
2023/01/23 09:53:00;;;;;;;14.52;7.03;;;;;;;1.28;100.00;101715.94;5157595;27;20099;-66
2023/01/23 09:55:39;;;;;;;12.88;6.85;;;;;;;1.14;100.00;101701.88;5157729;27;20087;-66
2023/01/23 09:58:14;;;;;;;15.85;7.72;;;;;;;0.99;100.00;101706.16;5157600;27;20054;-69
2023/01/23 10:00:41;;;;;;;14.88;7.95;;;;;;;1.12;100.00;101708.59;5157858;27;20059;-73
2023/01/23 10:03:13;;;;;;;17.17;8.18;;;;;;;1.14;100.00;101720.00;5157385;27;20057;-66
2023/01/23 10:05:46;;;;;;;22.70;9.48;;;;;;;1.09;100.00;101717.16;5157824;27;20070;-71
2023/01/23 10:08:23;;;;;;;20.80;9.13;;;;;;;0.98;100.00;101716.16;5157684;27;20066;-71
2023/01/23 10:10:56;;;;;;;15.00;7.68;;;;;;;1.03;100.00;101718.94;5157477;27;20050;-71
2023/01/23 10:13:35;;;;;;;14.30;7.07;;;;;;;1.32;100.00;101716.28;5157925;27;20047;-71
2023/01/23 10:16:23;;;;;;;15.27;6.88;;;;;;;1.09;100.00;101717.16;5157430;27;20051;-67
2023/01/23 10:18:59;;;;;;;13.95;6.55;;;;;;;1.12;100.00;101714.81;5157292;27;20043;-72
2023/01/23 10:21:32;;;;;;;16.65;7.50;;;;;;;1.05;100.00;101713.31;5157142;27;20058;-67
2023/01/23 10:24:08;;;;;;;14.65;8.57;;;;;;;1.01;100.00;101712.16;5157276;27;20403;-66
2023/01/23 10:26:39;;;;;;;18.83;7.93;;;;;;;1.02;100.00;101709.19;5157602;27;20050;-70
2023/01/23 10:29:13;;;;;;;13.75;7.40;;;;;;;0.98;100.00;101712.63;5157447;27;20051;-68
2023/01/23 10:31:43;;;;;;;;;;;;;;;0.82;100.00;101717.69;5158102;27;20051;-65
2023/01/23 10:34:17;;;;;;;14.35;7.15;;;;;;;1.07;100.00;101722.81;5157136;27;20203;-68
2023/01/23 10:36:57;;;;;;;15.57;8.20;;;;;;;0.63;100.00;101725.13;5157571;27;20055;-66
2023/01/23 10:39:27;;;;;;;11.75;6.68;;;;;;;1.06;100.00;101725.75;5157251;27;20046;-72
2023/01/23 10:41:53;;;;;;;10.80;6.30;;;;;;;1.28;100.00;101724.03;5157300;27;20062;-68
2023/01/23 10:44:21;;;;;;;12.23;6.18;;;;;;;1.12;100.00;101714.81;5160366;27;20050;-67
2023/01/23 10:46:50;;;;;;;18.30;8.38;;;;;;;1.10;100.00;101710.69;5160586;27;20091;-71
2023/01/23 10:49:31;;;;;;;17.23;6.88;;;;;;;0.83;100.00;101722.03;5161076;27;20042;-62
2023/01/23 10:51:58;;;;;;;13.75;6.88;;;;;;;0.87;100.00;101719.69;5160529;27;20047;-63
2023/01/23 10:54:25;;;;;;;13.98;7.25;;;;;;;0.76;100.00;101715.94;5161028;27;20049;-64
2023/01/23 10:56:57;;;;;;;13.25;7.15;;;;;;;1.11;100.00;101707.78;5160581;27;20141;-67
2023/01/23 10:59:30;;;;;;;12.43;6.60;;;;;;;1.03;100.00;101721.63;5161064;27;20055;-68
2023/01/23 11:02:02;;;;;;;11.43;6.32;;;;;;;0.99;100.00;101706.97;5160433;27;20050;-70
2023/01/23 11:04:32;;;;;;;15.05;6.65;;;;;;;1.08;100.00;101696.63;5160716;27;20042;-74
2023/01/23 11:07:04;;;;;;;12.88;5.93;;;;;;;1.08;100.00;101702.03;5160658;27;20355;-68
2023/01/23 11:09:31;;;;;;;11.57;5.85;;;;;;;1.16;100.00;101699.75;5160403;27;20380;-68
2023/01/23 11:12:02;;;;;;;10.95;6.03;;;;;;;0.87;100.00;101711.59;5160746;27;20051;-66
2023/01/23 11:14:28;;;;;;;14.00;5.88;;;;;;;0.98;100.00;101707.22;5160236;27;20057;-72
2023/01/23 11:17:01;;;;;;;12.23;7.03;;;;;;;0.82;100.00;101695.28;5160653;27;20047;-69
2023/01/23 11:19:31;;;;;;;11.07;6.00;;;;;;;0.85;100.00;101702.91;5160332;27;20047;-69
2023/01/23 11:21:58;;;;;;;10.90;5.93;;;;;;;0.51;100.00;101696.50;5160567;27;20050;-71
2023/01/23 11:24:36;;;;;;;12.65;6.45;;;;;;;0.03;100.00;101694.81;5160488;27;20050;-69